createdAt,value
2019-01-19T00:05:12.742Z,71.45
2019-01-19T00:12:17.827Z,71.56
2019-01-19T00:19:12.147Z,71.59
2019-01-19T00:26:21.398Z,71.70
2019-01-19T00:32:56.497Z,71.77
2019-01-19T00:39:58.181Z,71.87
2019-01-19T00:47:16.406Z,71.93
2019-01-19T00:53:44.471Z,71.99
2019-01-19T00:59:58.296Z,72.04
2019-01-19T01:07:15.027Z,72.02
2019-01-19T01:14:04.120Z,72.14
2019-01-19T01:21:13.860Z,72.22
2019-01-19T01:28:23.337Z,72.30
2019-01-19T01:35:14.425Z,72.22
2019-01-19T01:42:10.458Z,72.36
2019-01-19T01:49:06.684Z,72.29
2019-01-19T01:55:53.754Z,72.23
2019-01-19T02:03:12.594Z,72.21
2019-01-19T02:10:20.122Z,72.12
2019-01-19T02:17:21.527Z,72.13
2019-01-19T02:24:02.953Z,72.13
2019-01-19T02:31:12.837Z,72.10
2019-01-19T02:38:08.082Z,72.09
2019-01-19T02:45:02.641Z,72.20
2019-01-19T02:51:25.008Z,72.25
2019-01-19T02:58:32.522Z,72.15
2019-01-19T03:05:56.285Z,72.16
2019-01-19T03:12:33.236Z,72.23
2019-01-19T03:19:52.332Z,72.22
2019-01-19T03:26:45.753Z,72.20
2019-01-19T03:33:54.110Z,72.06
2019-01-19T03:40:36.098Z,72.05
2019-01-19T03:47:35.633Z,72.16
2019-01-19T03:54:27.779Z,72.26
2019-01-19T04:01:03.770Z,72.17
2019-01-19T04:08:05.220Z,72.27
2019-01-19T04:15:06.598Z,72.14
2019-01-19T04:21:59.823Z,72.17
2019-01-19T04:28:06.282Z,72.18
2019-01-19T04:34:13.676Z,72.11
2019-01-19T04:40:38.476Z,71.99
2019-01-19T04:46:44.437Z,72.01
2019-01-19T04:52:50.267Z,71.85
2019-01-19T04:58:56.260Z,71.63
2019-01-19T05:05:01.992Z,71.63
2019-01-19T05:11:07.729Z,71.55
2019-01-19T05:17:15.807Z,71.50
2019-01-19T05:23:21.775Z,71.53
2019-01-19T05:29:27.512Z,71.63
2019-01-19T05:35:34.672Z,71.61
2019-01-19T05:41:40.506Z,71.73
2019-01-19T05:47:46.666Z,71.75
2019-01-19T05:53:52.570Z,71.63
2019-01-19T05:59:58.545Z,71.67
2019-01-19T06:06:07.377Z,71.49
2019-01-19T06:12:13.086Z,71.58
2019-01-19T06:18:18.897Z,71.68
2019-01-19T06:24:25.079Z,71.67
2019-01-19T06:30:31.171Z,71.57
2019-01-19T06:36:36.906Z,71.40
2019-01-19T06:42:42.776Z,71.49
2019-01-19T06:48:48.657Z,71.56
2019-01-19T06:55:00.331Z,71.59
2019-01-19T07:01:08.238Z,71.53
2019-01-19T07:07:14.484Z,71.60
2019-01-19T07:13:20.234Z,71.47
2019-01-19T07:19:26.015Z,71.41
2019-01-19T07:25:35.167Z,71.48
2019-01-19T07:31:41.070Z,71.49
2019-01-19T07:37:46.825Z,71.32
2019-01-19T07:43:55.692Z,71.17
2019-01-19T07:50:01.582Z,71.09
2019-01-19T07:56:07.506Z,71.03
2019-01-19T08:02:13.383Z,71.10
2019-01-19T08:08:22.353Z,71.07
2019-01-19T08:14:29.095Z,71.08
2019-01-19T08:20:37.865Z,71.11
2019-01-19T08:26:43.778Z,71.16
2019-01-19T08:32:49.899Z,71.16
2019-01-19T08:38:55.788Z,71.05
2019-01-19T08:45:04.116Z,71.19
2019-01-19T08:51:09.867Z,71.17
2019-01-19T08:57:16.855Z,71.07
2019-01-19T09:03:22.934Z,71.05
2019-01-19T09:09:28.812Z,71.01
2019-01-19T09:15:38.038Z,71.08
2019-01-19T09:21:44.209Z,70.83
2019-01-19T09:27:54.652Z,70.62
2019-01-19T09:34:00.565Z,70.19
2019-01-19T09:40:08.956Z,69.63
2019-01-19T09:46:16.282Z,68.59
2019-01-19T09:52:22.224Z,67.89
2019-01-19T09:58:28.085Z,66.82
2019-01-19T10:04:34.223Z,64.61
2019-01-19T10:10:40.367Z,63.21
2019-01-19T10:16:46.290Z,61.24
2019-01-19T10:22:52.899Z,59.88
2019-01-19T10:28:58.932Z,58.60
2019-01-19T10:35:07.614Z,57.46
2019-01-19T10:41:15.408Z,57.00
2019-01-19T10:47:24.161Z,55.98
2019-01-19T10:53:29.911Z,55.67
2019-01-19T10:59:35.703Z,54.69
2019-01-19T11:05:43.445Z,54.09
2019-01-19T11:11:49.188Z,53.61
2019-01-19T11:17:56.398Z,53.54
2019-01-19T11:24:04.703Z,52.94
2019-01-19T11:30:20.807Z,52.09
2019-01-19T11:36:26.948Z,51.53
2019-01-19T11:42:35.961Z,51.33
2019-01-19T11:48:44.284Z,51.15
2019-01-19T11:54:52.653Z,50.33
2019-01-19T12:00:58.954Z,49.89
2019-01-19T12:07:05.205Z,49.70
2019-01-19T12:13:11.099Z,49.78
2019-01-19T12:19:16.869Z,49.47
2019-01-19T12:25:23.909Z,49.30
2019-01-19T12:31:30.148Z,48.35
2019-01-19T12:37:36.106Z,47.50
2019-01-19T12:43:42.264Z,46.25
2019-01-19T12:49:48.280Z,45.56
2019-01-19T12:55:54.565Z,44.89
2019-01-19T13:02:04.814Z,44.55
2019-01-19T13:08:14.230Z,44.39
2019-01-19T13:14:20.336Z,44.14
2019-01-19T13:21:01.966Z,44.10
2019-01-19T13:27:58.718Z,43.05
2019-01-19T13:35:23.893Z,43.27
2019-01-19T13:42:34.426Z,42.57
2019-01-19T13:49:29.341Z,40.82
2019-01-19T13:56:35.475Z,39.32
2019-01-19T14:03:15.002Z,39.20
2019-01-19T14:09:59.097Z,39.62
2019-01-19T14:17:01.526Z,39.72
2019-01-19T14:23:33.739Z,40.17
2019-01-19T14:30:53.121Z,40.16
2019-01-19T14:38:14.392Z,39.65
2019-01-19T14:44:58.289Z,39.53
2019-01-19T14:52:03.619Z,39.80
2019-01-19T14:59:06.646Z,40.05
2019-01-19T15:05:27.131Z,40.39
2019-01-19T15:12:43.198Z,41.04
2019-01-19T15:19:54.392Z,41.60
2019-01-19T15:27:14.895Z,42.36
2019-01-19T15:34:16.516Z,43.20
2019-01-19T15:40:50.835Z,44.20
2019-01-19T15:47:48.481Z,44.66
2019-01-19T15:54:46.295Z,44.75
2019-01-19T16:01:41.686Z,44.16
2019-01-19T16:08:55.508Z,45.15
2019-01-19T16:16:01.745Z,46.13
2019-01-19T16:22:44.442Z,47.21
2019-01-19T16:30:00.234Z,48.40
2019-01-19T16:37:13.916Z,49.28
2019-01-19T16:44:12.207Z,50.04
2019-01-19T16:51:10.047Z,50.60
2019-01-19T16:58:02.008Z,50.71
2019-01-19T17:05:11.041Z,51.10
2019-01-19T17:12:23.490Z,51.66
2019-01-19T17:19:31.175Z,52.11
2019-01-19T17:26:29.353Z,52.81
2019-01-19T17:33:18.169Z,53.13
2019-01-19T17:40:40.476Z,53.19
2019-01-19T17:47:28.274Z,53.54
2019-01-19T17:54:03.665Z,53.95
2019-01-19T18:01:17.757Z,54.69
2019-01-19T18:08:21.178Z,54.87
2019-01-19T18:15:20.099Z,55.06
2019-01-19T18:22:16.632Z,55.83
2019-01-19T18:29:22.415Z,56.29
2019-01-19T18:36:43.485Z,56.40
2019-01-19T18:43:17.519Z,56.54
2019-01-19T18:50:12.348Z,56.66
2019-01-19T18:57:00.941Z,56.87
2019-01-19T19:04:18.927Z,57.05
2019-01-19T19:11:08.170Z,57.40
2019-01-19T19:18:34.061Z,57.70
2019-01-19T19:25:39.473Z,57.82
2019-01-19T19:32:41.618Z,58.08
2019-01-19T19:39:09.814Z,58.17
2019-01-19T19:46:08.403Z,58.66
2019-01-19T19:52:14.190Z,58.66
2019-01-19T19:58:20.546Z,59.52
2019-01-19T20:04:27.394Z,60.34
2019-01-19T20:10:36.108Z,60.36
2019-01-19T20:16:42.015Z,60.14
2019-01-19T20:22:48.191Z,60.05
2019-01-19T20:28:55.048Z,60.21
2019-01-19T20:35:02.758Z,60.24
2019-01-19T20:41:08.784Z,60.18
2019-01-19T20:47:17.787Z,60.19
2019-01-19T20:53:23.832Z,60.30
2019-01-19T20:59:29.892Z,60.41
2019-01-19T21:05:35.713Z,60.57
2019-01-19T21:11:41.860Z,60.54
2019-01-19T21:17:47.825Z,60.76
2019-01-19T21:23:53.689Z,60.92
2019-01-19T21:30:18.601Z,61.11
2019-01-19T21:36:24.488Z,61.30
2019-01-19T21:42:30.418Z,61.31
2019-01-19T21:48:36.509Z,61.25
2019-01-19T21:54:42.654Z,61.25
2019-01-19T22:00:48.745Z,61.44
2019-01-19T22:06:54.696Z,62.19
2019-01-19T22:13:00.662Z,63.79
2019-01-19T22:19:06.875Z,64.26
2019-01-19T22:25:12.927Z,64.12
2019-01-19T22:31:18.859Z,63.74
2019-01-19T22:37:24.962Z,63.57
2019-01-19T22:43:34.009Z,64.12
2019-01-19T22:49:40.121Z,64.50
2019-01-19T22:55:46.199Z,64.58
2019-01-19T23:02:03.191Z,64.55
2019-01-19T23:08:09.226Z,64.36
2019-01-19T23:14:15.330Z,64.23
2019-01-19T23:20:21.441Z,64.31
2019-01-19T23:26:28.267Z,64.19
2019-01-19T23:32:34.513Z,64.24
2019-01-19T23:38:41.033Z,64.27
2019-01-19T23:44:46.974Z,64.42
2019-01-19T23:50:59.294Z,64.74
2019-01-19T23:57:05.507Z,64.89
